Flight Track Log - Related Links

Times and Time Zones

All times are in EDT time to prevent confusion due to time zone crossing. See the AFL1106 flight status page for this flight to view local times or setup timezone preferences in your user account.

Time Position Orientation Groundspeed Altitude Reporting Facility
EDT Latitude Longitude Course Direction KTS MPH feet Rate Location/Type
Fri 09:38:00 AM 55.6449 37.5210 174° South  Level Estimated
Fri 09:39:00 AM 55.5499 37.5396 174° South  Level Estimated
Fri 09:40:00 AM 55.4549 37.5581 174° South  Level Estimated
Fri 09:41:00 AM 55.3600 37.5765 174° South  Level Estimated
Fri 09:42:00 AM 55.2650 37.5948 174° South  Level Estimated
Fri 09:43:00 AM 55.1700 37.6130 174° South  Level Estimated
Fri 09:44:00 AM 55.0750 37.6311 174° South  Level Estimated
Fri 09:45:00 AM 54.9800 37.6492 174° South  Level Estimated
Fri 09:46:00 AM 54.8851 37.6671 174° South  Level Estimated
Fri 09:47:00 AM 54.7901 37.6850 174° South  Level Estimated
Fri 09:48:00 AM 54.6951 37.7028 174° South  Level Estimated
Fri 09:49:00 AM 54.6001 37.7205 174° South  Level Estimated
Fri 09:50:00 AM 54.5051 37.7381 174° South  Level Estimated
Fri 09:51:00 AM 54.4101 37.7557 174° South  Level Estimated
Fri 09:52:00 AM 54.3151 37.7731 174° South  Level Estimated
Fri 09:53:00 AM 54.2201 37.7905 174° South  Level Estimated
Fri 09:54:00 AM 54.1251 37.8078 174° South  Level Estimated
Fri 09:55:00 AM 54.0300 37.8251 174° South  Level Estimated
Fri 09:56:00 AM 53.9426 37.8408 174° South  Level Estimated
Fri 09:57:00 AM 53.8552 37.8565 174° South  Level Estimated
Fri 09:58:00 AM 53.7678 37.8722 174° South  Level Estimated
Fri 09:59:00 AM 53.6804 37.8878 174° South  Level Estimated
Fri 10:00:00 AM 53.5930 37.9033 174° South  Level Estimated
Fri 10:01:00 AM 53.5056 37.9187 174° South  Level Estimated
Fri 10:02:00 AM 53.4181 37.9341 174° South  Level Estimated
Fri 10:03:00 AM 53.3307 37.9495 174° South  Level Estimated
Fri 10:04:00 AM 53.2433 37.9647 174° South  Level Estimated
Fri 10:05:00 AM 53.1558 37.9799 174° South  Level Estimated
Fri 10:06:00 AM 53.0684 37.9950 174° South  Level Estimated
Fri 10:07:00 AM 52.9810 38.0101 174° South  Level Estimated
Fri 10:08:00 AM 52.8935 38.0251 174° South  Level Estimated
Fri 10:09:00 AM 52.8061 38.0401 174° South  Level Estimated
Fri 10:10:00 AM 52.7187 38.0550 174° South  Level Estimated
Fri 10:11:00 AM 52.6312 38.0698 174° South  Level Estimated
Fri 10:12:00 AM 52.5438 38.0846 174° South  Level Estimated
Fri 10:13:00 AM 52.4563 38.0993 174° South  Level Estimated
Fri 10:14:00 AM 52.3689 38.1140 174° South  Level Estimated
Fri 10:15:00 AM 52.2814 38.1286 174° South  Level Estimated
Fri 10:16:00 AM 52.1940 38.1431 174° South  Level Estimated
Fri 10:17:00 AM 52.1065 38.1576 174° South  Level Estimated
Fri 10:18:00 AM 52.0191 38.1720 174° South  Level Estimated
Fri 10:19:00 AM 51.9316 38.1864 174° South  Level Estimated
Fri 10:20:00 AM 51.8442 38.2007 174° South  Level Estimated
Fri 10:21:00 AM 51.7567 38.2150 174° South  Level Estimated
Fri 10:22:00 AM 51.6693 38.2292 174° South  Level Estimated
Fri 10:23:00 AM 51.5818 38.2434 174° South  Level Estimated
Fri 10:24:00 AM 51.4943 38.2575 174° South  Level Estimated
Fri 10:25:00 AM 51.4069 38.2715 174° South  Level Estimated
Fri 10:26:00 AM 51.3194 38.2855 174° South  Level Estimated
Fri 10:27:00 AM 51.2319 38.2994 174° South  Level Estimated
Fri 10:28:00 AM 51.1445 38.3133 174° South  Level Estimated
Fri 10:29:00 AM 51.0570 38.3271 174° South  Level Estimated
Fri 10:30:00 AM 50.9695 38.3409 174° South  Level Estimated
Fri 10:31:00 AM 50.8820 38.3546 174° South  Level Estimated
Fri 10:32:00 AM 50.7946 38.3683 174° South  Level Estimated
Fri 10:33:00 AM 50.7071 38.3820 174° South  Level Estimated
Fri 10:34:00 AM 50.6196 38.3955 174° South  Level Estimated
Fri 10:35:00 AM 50.5321 38.4090 174° South  Level Estimated
Fri 10:36:00 AM 50.4446 38.4225 174° South  Level Estimated
Fri 10:37:00 AM 50.3571 38.4360 174° South  Level Estimated
Fri 10:38:00 AM 50.2697 38.4493 174° South  Level Estimated
Fri 10:39:00 AM 50.1822 38.4627 174° South  Level Estimated
Fri 10:40:00 AM 50.0947 38.4759 174° South  Level Estimated
Fri 10:41:00 AM 50.0072 38.4892 174° South  Level Estimated
Fri 10:42:00 AM 49.9197 38.5023 174° South  Level Estimated
Fri 10:43:00 AM 49.8322 38.5155 174° South  Level Estimated
Fri 10:44:00 AM 49.7447 38.5286 174° South  Level Estimated
Fri 10:45:00 AM 49.6572 38.5416 174° South  Level Estimated
Fri 10:46:00 AM 49.5697 38.5546 174° South  Level Estimated
Fri 10:47:00 AM 49.4822 38.5675 175° South  Level Estimated
Fri 10:48:00 AM 49.3947 38.5804 175° South  Level Estimated
Fri 10:49:00 AM 49.3072 38.5933 175° South  Level Estimated
Fri 10:50:00 AM 49.2197 38.6061 175° South  Level Estimated
Fri 10:51:00 AM 49.1322 38.6189 175° South  Level Estimated
Fri 10:52:00 AM 49.0447 38.6316 175° South  Level Estimated
Fri 10:53:00 AM 48.9572 38.6442 175° South  Level Estimated
Fri 10:54:00 AM 48.8697 38.6569 175° South  Level Estimated
Fri 10:55:00 AM 48.7822 38.6695 175° South  Level Estimated
Fri 10:56:00 AM 48.6946 38.6820 175° South  Level Estimated
Fri 10:57:00 AM 48.6071 38.6945 175° South  Level Estimated
Fri 10:58:00 AM 48.5196 38.7070 175° South  Level Estimated
Fri 10:59:00 AM 48.4321 38.7194 175° South  Level Estimated
Fri 11:00:00 AM 48.3446 38.7317 175° South  Level Estimated
Fri 11:01:00 AM 48.2571 38.7440 175° South  Level Estimated
Fri 11:02:00 AM 48.1695 38.7563 175° South  Level Estimated
Fri 11:03:00 AM 48.0820 38.7686 175° South  Level Estimated
Fri 11:04:00 AM 47.9945 38.7808 175° South  Level Estimated
Fri 11:05:00 AM 47.9070 38.7929 175° South  Level Estimated
Fri 11:06:00 AM 47.8194 38.8050 175° South  Level Estimated
Fri 11:07:00 AM 47.7319 38.8171 175° South  Level Estimated
Fri 11:08:00 AM 47.6444 38.8292 175° South  Level Estimated
Fri 11:09:00 AM 47.5569 38.8412 175° South  Level Estimated
Fri 11:10:00 AM 47.4693 38.8531 175° South  Level Estimated
Fri 11:11:00 AM 47.3818 38.8650 175° South  Level Estimated
Fri 11:12:00 AM 47.2943 38.8769 175° South  Level Estimated
Fri 11:13:00 AM 47.2067 38.8887 175° South  Level Estimated
Fri 11:14:00 AM 47.1192 38.9006 175° South  Level Estimated
Fri 11:15:00 AM 47.0317 38.9123 175° South  Level Estimated
Fri 11:16:00 AM 46.9441 38.9240 175° South  Level Estimated
Fri 11:17:00 AM 46.8566 38.9357 175° South  Level Estimated
Fri 11:18:00 AM 46.7690 38.9474 175° South  Level Estimated
Fri 11:19:00 AM 46.6815 38.9590 175° South  Level Estimated
Fri 11:20:00 AM 46.5939 38.9705 175° South  Level Estimated
Fri 11:21:00 AM 46.5064 38.9821 175° South  Level Estimated
Fri 11:22:00 AM 46.4189 38.9936 175° South  Level Estimated
Fri 11:23:00 AM 46.3313 39.0050 175° South  Level Estimated
Fri 11:24:00 AM 46.2438 39.0164 175° South  Level Estimated
Fri 11:25:00 AM 46.1562 39.0278 175° South  Level Estimated
Fri 11:26:00 AM 46.0687 39.0392 175° South  Level Estimated
Fri 11:27:00 AM 45.9811 39.0505 175° South  Level Estimated
Fri 11:28:00 AM 45.8936 39.0618 175° South  Level Estimated

Login

Don't have an account? Register now (free) for customized features, flight alerts, and more!